sensor_id;sensor_type;location;lat;lon;timestamp;temperature;humidity
7516;DHT22;3799;47.184;8.538;2023-02-22T00:00:53;7.30;99.90
7516;DHT22;3799;47.184;8.538;2023-02-22T00:03:26;7.40;99.90
7516;DHT22;3799;47.184;8.538;2023-02-22T00:06:04;7.20;99.90
7516;DHT22;3799;47.184;8.538;2023-02-22T00:08:34;7.00;99.90
7516;DHT22;3799;47.184;8.538;2023-02-22T00:11:04;7.30;99.90
7516;DHT22;3799;47.184;8.538;2023-02-22T00:13:37;7.30;99.90
7516;DHT22;3799;47.184;8.538;2023-02-22T00:16:05;7.20;99.90
7516;DHT22;3799;47.184;8.538;2023-02-22T00:18:34;7.40;99.90
7516;DHT22;3799;47.184;8.538;2023-02-22T00:21:01;7.10;99.90
7516;DHT22;3799;47.184;8.538;2023-02-22T00:23:29;7.10;99.90
7516;DHT22;3799;47.184;8.538;2023-02-22T00:25:58;6.90;99.90
7516;DHT22;3799;47.184;8.538;2023-02-22T00:28:26;6.80;99.90
7516;DHT22;3799;47.184;8.538;2023-02-22T00:30:54;6.60;99.90
7516;DHT22;3799;47.184;8.538;2023-02-22T00:33:21;6.40;99.90
7516;DHT22;3799;47.184;8.538;2023-02-22T00:35:48;6.40;99.90
7516;DHT22;3799;47.184;8.538;2023-02-22T00:38:18;6.40;99.90
7516;DHT22;3799;47.184;8.538;2023-02-22T00:40:45;6.40;99.90
7516;DHT22;3799;47.184;8.538;2023-02-22T00:43:12;6.50;99.90
7516;DHT22;3799;47.184;8.538;2023-02-22T00:45:40;6.50;99.90
7516;DHT22;3799;47.184;8.538;2023-02-22T00:48:10;6.40;99.90
7516;DHT22;3799;47.184;8.538;2023-02-22T00:50:37;6.40;99.90
7516;DHT22;3799;47.184;8.538;2023-02-22T00:53:05;6.80;99.90
7516;DHT22;3799;47.184;8.538;2023-02-22T00:55:35;6.70;99.90
7516;DHT22;3799;47.184;8.538;2023-02-22T00:58:04;6.70;99.90
7516;DHT22;3799;47.184;8.538;2023-02-22T01:00:37;6.80;99.90
7516;DHT22;3799;47.184;8.538;2023-02-22T01:03:19;6.70;99.90
7516;DHT22;3799;47.184;8.538;2023-02-22T01:05:49;6.80;99.90
7516;DHT22;3799;47.184;8.538;2023-02-22T01:08:17;6.70;99.90
7516;DHT22;3799;47.184;8.538;2023-02-22T01:10:44;6.60;99.90
7516;DHT22;3799;47.184;8.538;2023-02-22T01:13:12;6.50;99.90
7516;DHT22;3799;47.184;8.538;2023-02-22T01:15:42;6.60;99.90
7516;DHT22;3799;47.184;8.538;2023-02-22T01:18:11;6.70;99.90
7516;DHT22;3799;47.184;8.538;2023-02-22T01:20:39;6.70;99.90
7516;DHT22;3799;47.184;8.538;2023-02-22T01:23:08;6.50;99.90
7516;DHT22;3799;47.184;8.538;2023-02-22T01:25:36;6.70;99.90
7516;DHT22;3799;47.184;8.538;2023-02-22T01:28:05;6.50;99.90
7516;DHT22;3799;47.184;8.538;2023-02-22T01:30:34;6.30;99.90
7516;DHT22;3799;47.184;8.538;2023-02-22T01:33:03;6.50;99.90
7516;DHT22;3799;47.184;8.538;2023-02-22T01:35:33;6.10;99.90
7516;DHT22;3799;47.184;8.538;2023-02-22T01:38:00;6.20;99.90
7516;DHT22;3799;47.184;8.538;2023-02-22T01:40:33;6.00;99.90
7516;DHT22;3799;47.184;8.538;2023-02-22T01:43:04;6.10;99.90
7516;DHT22;3799;47.184;8.538;2023-02-22T01:45:43;6.10;99.90
7516;DHT22;3799;47.184;8.538;2023-02-22T01:48:16;6.20;99.90
7516;DHT22;3799;47.184;8.538;2023-02-22T01:50:53;6.10;99.90
7516;DHT22;3799;47.184;8.538;2023-02-22T01:53:26;6.30;99.90
7516;DHT22;3799;47.184;8.538;2023-02-22T01:55:55;5.90;99.90
7516;DHT22;3799;47.184;8.538;2023-02-22T01:58:25;6.20;99.90
7516;DHT22;3799;47.184;8.538;2023-02-22T02:00:54;5.90;99.90
7516;DHT22;3799;47.184;8.538;2023-02-22T02:03:25;5.90;99.90
7516;DHT22;3799;47.184;8.538;2023-02-22T02:05:58;6.00;99.90
7516;DHT22;3799;47.184;8.538;2023-02-22T02:08:35;6.20;99.90
7516;DHT22;3799;47.184;8.538;2023-02-22T02:11:07;6.10;99.90
7516;DHT22;3799;47.184;8.538;2023-02-22T02:13:35;5.80;99.90
7516;DHT22;3799;47.184;8.538;2023-02-22T02:16:02;5.90;99.90
7516;DHT22;3799;47.184;8.538;2023-02-22T02:18:30;5.90;99.90
7516;DHT22;3799;47.184;8.538;2023-02-22T02:21:09;5.70;99.90
7516;DHT22;3799;47.184;8.538;2023-02-22T02:27:17;5.90;99.90
7516;DHT22;3799;47.184;8.538;2023-02-22T02:30:18;5.70;99.90
7516;DHT22;3799;47.184;8.538;2023-02-22T02:43:33;5.60;99.90
7516;DHT22;3799;47.184;8.538;2023-02-22T02:46:18;5.40;99.90
7516;DHT22;3799;47.184;8.538;2023-02-22T02:48:56;5.60;99.90
7516;DHT22;3799;47.184;8.538;2023-02-22T02:51:35;5.70;99.90
7516;DHT22;3799;47.184;8.538;2023-02-22T02:54:03;5.60;99.90
7516;DHT22;3799;47.184;8.538;2023-02-22T02:56:31;5.60;99.90
7516;DHT22;3799;47.184;8.538;2023-02-22T02:58:58;5.60;99.90
7516;DHT22;3799;47.184;8.538;2023-02-22T03:07:33;5.50;99.90
7516;DHT22;3799;47.184;8.538;2023-02-22T03:10:17;5.60;99.90
7516;DHT22;3799;47.184;8.538;2023-02-22T03:13:00;5.80;99.90
7516;DHT22;3799;47.184;8.538;2023-02-22T03:15:43;5.50;99.90
7516;DHT22;3799;47.184;8.538;2023-02-22T03:26:15;5.70;99.90
7516;DHT22;3799;47.184;8.538;2023-02-22T03:28:47;5.50;99.90
7516;DHT22;3799;47.184;8.538;2023-02-22T03:31:27;5.60;99.90
7516;DHT22;3799;47.184;8.538;2023-02-22T03:33:59;5.60;99.90
7516;DHT22;3799;47.184;8.538;2023-02-22T03:36:34;5.70;99.90
7516;DHT22;3799;47.184;8.538;2023-02-22T03:39:08;5.50;99.90
7516;DHT22;3799;47.184;8.538;2023-02-22T03:41:37;5.70;99.90
7516;DHT22;3799;47.184;8.538;2023-02-22T03:44:08;5.50;99.90
7516;DHT22;3799;47.184;8.538;2023-02-22T03:46:38;5.70;99.90
7516;DHT22;3799;47.184;8.538;2023-02-22T03:49:22;5.70;99.90
7516;DHT22;3799;47.184;8.538;2023-02-22T03:51:51;5.60;99.90
7516;DHT22;3799;47.184;8.538;2023-02-22T03:54:18;5.80;99.90
7516;DHT22;3799;47.184;8.538;2023-02-22T03:57:24;5.90;99.90
7516;DHT22;3799;47.184;8.538;2023-02-22T03:59:52;5.70;99.90
7516;DHT22;3799;47.184;8.538;2023-02-22T04:02:20;5.70;99.90
7516;DHT22;3799;47.184;8.538;2023-02-22T04:04:49;5.60;99.90
7516;DHT22;3799;47.184;8.538;2023-02-22T04:07:17;5.60;99.90
7516;DHT22;3799;47.184;8.538;2023-02-22T04:09:45;5.60;99.90
7516;DHT22;3799;47.184;8.538;2023-02-22T04:12:12;5.70;99.90
7516;DHT22;3799;47.184;8.538;2023-02-22T04:14:39;5.70;99.90
7516;DHT22;3799;47.184;8.538;2023-02-22T04:17:07;5.80;99.90
7516;DHT22;3799;47.184;8.538;2023-02-22T04:19:34;5.70;99.90
7516;DHT22;3799;47.184;8.538;2023-02-22T04:22:01;5.50;99.90
7516;DHT22;3799;47.184;8.538;2023-02-22T04:24:28;5.70;99.90
7516;DHT22;3799;47.184;8.538;2023-02-22T04:26:56;5.60;99.90
7516;DHT22;3799;47.184;8.538;2023-02-22T04:29:26;5.50;99.90
7516;DHT22;3799;47.184;8.538;2023-02-22T04:31:53;5.50;99.90
7516;DHT22;3799;47.184;8.538;2023-02-22T04:34:23;5.50;99.90
7516;DHT22;3799;47.184;8.538;2023-02-22T04:36:50;5.50;99.90
7516;DHT22;3799;47.184;8.538;2023-02-22T04:39:18;5.50;99.90
7516;DHT22;3799;47.184;8.538;2023-02-22T04:41:48;5.70;99.90
7516;DHT22;3799;47.184;8.538;2023-02-22T04:44:16;5.60;99.90
7516;DHT22;3799;47.184;8.538;2023-02-22T04:46:43;5.50;99.90
7516;DHT22;3799;47.184;8.538;2023-02-22T04:49:12;5.60;99.90
7516;DHT22;3799;47.184;8.538;2023-02-22T04:51:43;5.50;99.90
7516;DHT22;3799;47.184;8.538;2023-02-22T04:54:10;5.40;99.90
7516;DHT22;3799;47.184;8.538;2023-02-22T04:56:44;5.20;99.90
7516;DHT22;3799;47.184;8.538;2023-02-22T04:59:25;5.30;99.90
7516;DHT22;3799;47.184;8.538;2023-02-22T05:02:01;5.50;99.90
7516;DHT22;3799;47.184;8.538;2023-02-22T05:04:28;5.60;99.90
7516;DHT22;3799;47.184;8.538;2023-02-22T05:06:56;5.50;99.90
7516;DHT22;3799;47.184;8.538;2023-02-22T05:09:23;5.60;99.90
7516;DHT22;3799;47.184;8.538;2023-02-22T05:11:50;5.40;99.90
7516;DHT22;3799;47.184;8.538;2023-02-22T05:14:17;5.50;99.90
7516;DHT22;3799;47.184;8.538;2023-02-22T05:16:44;5.40;99.90
7516;DHT22;3799;47.184;8.538;2023-02-22T05:19:13;5.30;99.90
7516;DHT22;3799;47.184;8.538;2023-02-22T05:21:43;5.50;99.90
7516;DHT22;3799;47.184;8.538;2023-02-22T05:24:10;5.50;99.90
7516;DHT22;3799;47.184;8.538;2023-02-22T05:26:37;5.50;99.90
7516;DHT22;3799;47.184;8.538;2023-02-22T05:29:04;5.60;99.90
7516;DHT22;3799;47.184;8.538;2023-02-22T05:31:34;5.60;99.90
7516;DHT22;3799;47.184;8.538;2023-02-22T05:34:04;5.50;99.90
7516;DHT22;3799;47.184;8.538;2023-02-22T05:36:32;5.50;99.90
7516;DHT22;3799;47.184;8.538;2023-02-22T05:39:01;5.50;99.90
7516;DHT22;3799;47.184;8.538;2023-02-22T05:41:29;5.50;99.90
7516;DHT22;3799;47.184;8.538;2023-02-22T05:43:56;5.50;99.90
7516;DHT22;3799;47.184;8.538;2023-02-22T05:46:23;5.20;99.90
7516;DHT22;3799;47.184;8.538;2023-02-22T05:48:53;5.50;99.90
7516;DHT22;3799;47.184;8.538;2023-02-22T05:51:21;5.60;99.90
7516;DHT22;3799;47.184;8.538;2023-02-22T05:53:48;5.40;99.90
7516;DHT22;3799;47.184;8.538;2023-02-22T05:56:22;5.50;99.90
7516;DHT22;3799;47.184;8.538;2023-02-22T05:58:50;5.60;99.90
7516;DHT22;3799;47.184;8.538;2023-02-22T06:01:18;5.60;99.90
7516;DHT22;3799;47.184;8.538;2023-02-22T06:03:50;5.60;99.90
7516;DHT22;3799;47.184;8.538;2023-02-22T06:06:19;5.60;99.90
7516;DHT22;3799;47.184;8.538;2023-02-22T06:08:48;5.50;99.90
7516;DHT22;3799;47.184;8.538;2023-02-22T06:11:17;5.40;99.90
7516;DHT22;3799;47.184;8.538;2023-02-22T06:13:52;5.60;99.90
7516;DHT22;3799;47.184;8.538;2023-02-22T06:16:20;5.40;99.90
7516;DHT22;3799;47.184;8.538;2023-02-22T06:18:57;5.60;99.90
7516;DHT22;3799;47.184;8.538;2023-02-22T06:21:26;5.40;99.90
7516;DHT22;3799;47.184;8.538;2023-02-22T06:23:53;5.60;99.90
7516;DHT22;3799;47.184;8.538;2023-02-22T06:26:20;5.50;99.90
7516;DHT22;3799;47.184;8.538;2023-02-22T06:28:48;5.50;99.90
7516;DHT22;3799;47.184;8.538;2023-02-22T06:31:15;5.60;99.90
7516;DHT22;3799;47.184;8.538;2023-02-22T06:33:43;5.50;99.90
7516;DHT22;3799;47.184;8.538;2023-02-22T06:36:14;5.40;99.90
7516;DHT22;3799;47.184;8.538;2023-02-22T06:38:41;5.60;99.90
7516;DHT22;3799;47.184;8.538;2023-02-22T06:41:08;5.50;99.90
7516;DHT22;3799;47.184;8.538;2023-02-22T06:43:36;5.60;99.90
7516;DHT22;3799;47.184;8.538;2023-02-22T06:46:03;5.30;99.90
7516;DHT22;3799;47.184;8.538;2023-02-22T06:48:30;5.50;99.90
7516;DHT22;3799;47.184;8.538;2023-02-22T06:50:58;5.40;99.90
7516;DHT22;3799;47.184;8.538;2023-02-22T06:53:25;5.60;99.90
7516;DHT22;3799;47.184;8.538;2023-02-22T06:55:52;5.60;99.90
7516;DHT22;3799;47.184;8.538;2023-02-22T06:58:19;5.60;99.90
7516;DHT22;3799;47.184;8.538;2023-02-22T07:00:49;5.30;99.90
7516;DHT22;3799;47.184;8.538;2023-02-22T07:03:16;5.60;99.90
7516;DHT22;3799;47.184;8.538;2023-02-22T07:05:44;5.50;99.90
7516;DHT22;3799;47.184;8.538;2023-02-22T07:08:11;5.50;99.90
7516;DHT22;3799;47.184;8.538;2023-02-22T07:10:39;5.70;99.90
7516;DHT22;3799;47.184;8.538;2023-02-22T07:13:07;5.70;99.90
7516;DHT22;3799;47.184;8.538;2023-02-22T07:15:34;5.80;99.90
7516;DHT22;3799;47.184;8.538;2023-02-22T07:18:02;5.90;99.90
7516;DHT22;3799;47.184;8.538;2023-02-22T07:20:30;6.10;99.90
7516;DHT22;3799;47.184;8.538;2023-02-22T07:22:58;6.20;99.90
7516;DHT22;3799;47.184;8.538;2023-02-22T07:25:25;6.20;99.90
7516;DHT22;3799;47.184;8.538;2023-02-22T07:27:53;6.20;99.90
7516;DHT22;3799;47.184;8.538;2023-02-22T07:30:28;6.40;99.90
7516;DHT22;3799;47.184;8.538;2023-02-22T07:33:05;6.20;99.90
7516;DHT22;3799;47.184;8.538;2023-02-22T07:35:38;6.30;99.90
7516;DHT22;3799;47.184;8.538;2023-02-22T07:38:07;6.20;99.90
7516;DHT22;3799;47.184;8.538;2023-02-22T07:40:37;6.40;99.90
7516;DHT22;3799;47.184;8.538;2023-02-22T07:43:14;6.50;99.90
7516;DHT22;3799;47.184;8.538;2023-02-22T07:45:41;6.40;99.90
7516;DHT22;3799;47.184;8.538;2023-02-22T07:48:14;6.50;99.90
7516;DHT22;3799;47.184;8.538;2023-02-22T07:50:43;6.30;99.90
7516;DHT22;3799;47.184;8.538;2023-02-22T07:53:14;6.50;99.90
7516;DHT22;3799;47.184;8.538;2023-02-22T07:55:44;6.60;99.90
7516;DHT22;3799;47.184;8.538;2023-02-22T07:58:13;6.50;99.90
7516;DHT22;3799;47.184;8.538;2023-02-22T08:00:43;6.40;99.90
7516;DHT22;3799;47.184;8.538;2023-02-22T08:03:15;6.50;99.90
7516;DHT22;3799;47.184;8.538;2023-02-22T08:05:51;6.40;99.90
7516;DHT22;3799;47.184;8.538;2023-02-22T08:08:19;6.60;99.90
7516;DHT22;3799;47.184;8.538;2023-02-22T08:10:50;6.60;99.90
7516;DHT22;3799;47.184;8.538;2023-02-22T08:13:18;6.40;99.90
7516;DHT22;3799;47.184;8.538;2023-02-22T08:15:50;6.70;99.90
7516;DHT22;3799;47.184;8.538;2023-02-22T08:18:18;6.50;99.90
7516;DHT22;3799;47.184;8.538;2023-02-22T08:20:49;6.60;99.90
7516;DHT22;3799;47.184;8.538;2023-02-22T08:23:19;6.60;99.90
7516;DHT22;3799;47.184;8.538;2023-02-22T08:25:48;6.80;99.90
7516;DHT22;3799;47.184;8.538;2023-02-22T08:28:24;6.80;99.90
7516;DHT22;3799;47.184;8.538;2023-02-22T08:30:52;7.10;99.90
7516;DHT22;3799;47.184;8.538;2023-02-22T08:33:22;7.00;99.90
7516;DHT22;3799;47.184;8.538;2023-02-22T08:35:53;7.40;99.90
7516;DHT22;3799;47.184;8.538;2023-02-22T08:38:25;7.50;99.90
7516;DHT22;3799;47.184;8.538;2023-02-22T08:40:54;7.50;99.90
7516;DHT22;3799;47.184;8.538;2023-02-22T08:43:22;7.60;99.90
7516;DHT22;3799;47.184;8.538;2023-02-22T08:45:50;7.60;99.90
7516;DHT22;3799;47.184;8.538;2023-02-22T08:48:18;7.80;99.90
7516;DHT22;3799;47.184;8.538;2023-02-22T08:50:46;7.90;99.90
7516;DHT22;3799;47.184;8.538;2023-02-22T08:53:14;7.80;99.90
7516;DHT22;3799;47.184;8.538;2023-02-22T08:55:45;8.00;99.90
7516;DHT22;3799;47.184;8.538;2023-02-22T08:58:12;8.30;99.90
7516;DHT22;3799;47.184;8.538;2023-02-22T09:00:40;8.10;99.90
7516;DHT22;3799;47.184;8.538;2023-02-22T09:03:13;8.40;99.90
7516;DHT22;3799;47.184;8.538;2023-02-22T09:05:42;8.60;99.90
7516;DHT22;3799;47.184;8.538;2023-02-22T09:08:09;8.50;99.90
7516;DHT22;3799;47.184;8.538;2023-02-22T09:10:37;8.80;99.90
7516;DHT22;3799;47.184;8.538;2023-02-22T09:13:04;8.70;99.90
7516;DHT22;3799;47.184;8.538;2023-02-22T09:15:33;8.90;99.90
7516;DHT22;3799;47.184;8.538;2023-02-22T09:18:06;8.90;99.90
7516;DHT22;3799;47.184;8.538;2023-02-22T09:20:37;9.10;99.90
7516;DHT22;3799;47.184;8.538;2023-02-22T09:23:09;9.20;99.90
7516;DHT22;3799;47.184;8.538;2023-02-22T09:25:36;9.30;99.90
7516;DHT22;3799;47.184;8.538;2023-02-22T09:28:07;9.20;99.90
7516;DHT22;3799;47.184;8.538;2023-02-22T09:30:37;9.40;99.90
7516;DHT22;3799;47.184;8.538;2023-02-22T09:33:07;9.80;99.90
7516;DHT22;3799;47.184;8.538;2023-02-22T09:35:39;9.60;99.90
7516;DHT22;3799;47.184;8.538;2023-02-22T09:38:17;10.00;99.80
7516;DHT22;3799;47.184;8.538;2023-02-22T09:40:53;10.00;99.30
7516;DHT22;3799;47.184;8.538;2023-02-22T09:46:34;10.10;98.00
7516;DHT22;3799;47.184;8.538;2023-02-22T09:49:20;10.10;97.10
7516;DHT22;3799;47.184;8.538;2023-02-22T09:52:04;10.70;96.80
7516;DHT22;3799;47.184;8.538;2023-02-22T09:54:41;10.60;95.90
7516;DHT22;3799;47.184;8.538;2023-02-22T09:57:31;10.70;95.10
7516;DHT22;3799;47.184;8.538;2023-02-22T10:00:05;11.00;94.40
7516;DHT22;3799;47.184;8.538;2023-02-22T10:03:37;11.20;94.00
7516;DHT22;3799;47.184;8.538;2023-02-22T10:05:41;11.10;93.60
7516;DHT22;3799;47.184;8.538;2023-02-22T10:08:18;11.40;92.60
7516;DHT22;3799;47.184;8.538;2023-02-22T10:10:47;11.50;91.50
7516;DHT22;3799;47.184;8.538;2023-02-22T10:13:28;11.50;90.80
7516;DHT22;3799;47.184;8.538;2023-02-22T10:16:25;11.60;88.50
7516;DHT22;3799;47.184;8.538;2023-02-22T10:21:55;12.10;80.10
7516;DHT22;3799;47.184;8.538;2023-02-22T10:27:41;12.60;76.50
7516;DHT22;3799;47.184;8.538;2023-02-22T10:30:20;12.30;75.20
7516;DHT22;3799;47.184;8.538;2023-02-22T10:33:24;12.50;75.80
7516;DHT22;3799;47.184;8.538;2023-02-22T10:35:54;12.70;77.20
7516;DHT22;3799;47.184;8.538;2023-02-22T10:38:27;12.70;77.30
7516;DHT22;3799;47.184;8.538;2023-02-22T10:41:04;12.80;78.20
7516;DHT22;3799;47.184;8.538;2023-02-22T10:43:43;12.90;77.40
7516;DHT22;3799;47.184;8.538;2023-02-22T10:46:14;12.80;76.80
7516;DHT22;3799;47.184;8.538;2023-02-22T10:48:46;13.10;77.90
7516;DHT22;3799;47.184;8.538;2023-02-22T10:51:15;13.10;78.00
7516;DHT22;3799;47.184;8.538;2023-02-22T10:53:43;13.30;78.00
7516;DHT22;3799;47.184;8.538;2023-02-22T10:56:19;13.20;77.40
7516;DHT22;3799;47.184;8.538;2023-02-22T10:58:51;13.40;76.60
7516;DHT22;3799;47.184;8.538;2023-02-22T11:04:02;13.60;74.60
7516;DHT22;3799;47.184;8.538;2023-02-22T11:06:34;13.40;73.40
7516;DHT22;3799;47.184;8.538;2023-02-22T11:09:17;13.50;72.30
7516;DHT22;3799;47.184;8.538;2023-02-22T11:11:48;14.00;71.20
7516;DHT22;3799;47.184;8.538;2023-02-22T11:14:29;14.10;70.10
7516;DHT22;3799;47.184;8.538;2023-02-22T11:17:00;14.00;68.60
7516;DHT22;3799;47.184;8.538;2023-02-22T11:19:35;14.30;67.90
7516;DHT22;3799;47.184;8.538;2023-02-22T11:24:31;14.60;64.80
7516;DHT22;3799;47.184;8.538;2023-02-22T11:27:34;14.70;64.00
7516;DHT22;3799;47.184;8.538;2023-02-22T11:30:29;14.90;62.30
7516;DHT22;3799;47.184;8.538;2023-02-22T11:33:20;15.20;61.70
7516;DHT22;3799;47.184;8.538;2023-02-22T11:35:54;15.00;60.30
7516;DHT22;3799;47.184;8.538;2023-02-22T11:38:28;15.30;60.40
7516;DHT22;3799;47.184;8.538;2023-02-22T11:43:34;15.50;59.60
7516;DHT22;3799;47.184;8.538;2023-02-22T11:48:39;15.80;59.00
7516;DHT22;3799;47.184;8.538;2023-02-22T11:54:19;16.10;58.50
7516;DHT22;3799;47.184;8.538;2023-02-22T12:00:18;16.50;57.40
7516;DHT22;3799;47.184;8.538;2023-02-22T12:19:49;17.20;54.70
7516;DHT22;3799;47.184;8.538;2023-02-22T12:22:31;17.60;54.40
7516;DHT22;3799;47.184;8.538;2023-02-22T12:26:22;17.60;54.10
7516;DHT22;3799;47.184;8.538;2023-02-22T12:28:43;17.50;53.90
7516;DHT22;3799;47.184;8.538;2023-02-22T12:33:57;17.70;53.50
7516;DHT22;3799;47.184;8.538;2023-02-22T12:36:34;18.00;53.60
7516;DHT22;3799;47.184;8.538;2023-02-22T12:39:27;17.90;53.50
7516;DHT22;3799;47.184;8.538;2023-02-22T12:42:44;18.10;53.40
7516;DHT22;3799;47.184;8.538;2023-02-22T12:50:36;18.00;52.80
7516;DHT22;3799;47.184;8.538;2023-02-22T12:53:17;18.00;52.70
7516;DHT22;3799;47.184;8.538;2023-02-22T12:58:33;17.70;52.80
7516;DHT22;3799;47.184;8.538;2023-02-22T13:01:12;18.20;53.00
7516;DHT22;3799;47.184;8.538;2023-02-22T13:03:44;18.20;52.80
7516;DHT22;3799;47.184;8.538;2023-02-22T13:10:12;18.40;52.60
7516;DHT22;3799;47.184;8.538;2023-02-22T13:13:06;18.60;52.30
7516;DHT22;3799;47.184;8.538;2023-02-22T13:15:50;19.00;52.80
7516;DHT22;3799;47.184;8.538;2023-02-22T13:18:45;18.70;52.60
7516;DHT22;3799;47.184;8.538;2023-02-22T13:26:47;18.70;53.80
7516;DHT22;3799;47.184;8.538;2023-02-22T13:29:45;18.70;53.50
7516;DHT22;3799;47.184;8.538;2023-02-22T13:41:22;18.60;53.50
7516;DHT22;3799;47.184;8.538;2023-02-22T13:44:26;18.30;53.10
7516;DHT22;3799;47.184;8.538;2023-02-22T13:50:01;18.60;52.90
7516;DHT22;3799;47.184;8.538;2023-02-22T13:52:37;18.80;52.80
7516;DHT22;3799;47.184;8.538;2023-02-22T13:55:19;18.90;51.90
7516;DHT22;3799;47.184;8.538;2023-02-22T13:57:48;19.10;52.00
7516;DHT22;3799;47.184;8.538;2023-02-22T14:00:23;18.80;51.80
7516;DHT22;3799;47.184;8.538;2023-02-22T14:13:16;18.50;51.90
7516;DHT22;3799;47.184;8.538;2023-02-22T14:18:40;18.00;51.90
7516;DHT22;3799;47.184;8.538;2023-02-22T14:21:10;17.90;52.00
7516;DHT22;3799;47.184;8.538;2023-02-22T14:23:42;18.10;52.40
7516;DHT22;3799;47.184;8.538;2023-02-22T14:28:46;18.30;53.20
7516;DHT22;3799;47.184;8.538;2023-02-22T14:31:21;18.20;53.00
7516;DHT22;3799;47.184;8.538;2023-02-22T14:37:11;18.00;52.30
7516;DHT22;3799;47.184;8.538;2023-02-22T14:40:05;18.30;52.90
7516;DHT22;3799;47.184;8.538;2023-02-22T14:42:46;17.90;52.60
7516;DHT22;3799;47.184;8.538;2023-02-22T14:45:35;18.00;52.60
7516;DHT22;3799;47.184;8.538;2023-02-22T14:50:53;17.90;52.80
7516;DHT22;3799;47.184;8.538;2023-02-22T14:53:51;18.00;52.90
7516;DHT22;3799;47.184;8.538;2023-02-22T14:56:25;18.40;52.50
7516;DHT22;3799;47.184;8.538;2023-02-22T15:01:45;18.30;51.60
7516;DHT22;3799;47.184;8.538;2023-02-22T15:04:31;18.20;51.60
7516;DHT22;3799;47.184;8.538;2023-02-22T15:09:33;17.50;51.90
7516;DHT22;3799;47.184;8.538;2023-02-22T15:14:33;17.20;52.50
7516;DHT22;3799;47.184;8.538;2023-02-22T15:17:12;17.00;52.70
7516;DHT22;3799;47.184;8.538;2023-02-22T15:19:42;16.80;53.10
7516;DHT22;3799;47.184;8.538;2023-02-22T15:22:20;16.90;53.30
7516;DHT22;3799;47.184;8.538;2023-02-22T15:25:03;16.60;53.50
7516;DHT22;3799;47.184;8.538;2023-02-22T15:27:31;16.20;54.00
7516;DHT22;3799;47.184;8.538;2023-02-22T15:30:15;16.20;54.70
7516;DHT22;3799;47.184;8.538;2023-02-22T15:32:43;15.70;54.90
7516;DHT22;3799;47.184;8.538;2023-02-22T15:35:29;15.70;55.30
7516;DHT22;3799;47.184;8.538;2023-02-22T15:38:18;15.30;55.60
7516;DHT22;3799;47.184;8.538;2023-02-22T15:41:06;15.30;55.70
7516;DHT22;3799;47.184;8.538;2023-02-22T15:43:40;14.90;56.00
7516;DHT22;3799;47.184;8.538;2023-02-22T15:46:07;14.80;56.40
7516;DHT22;3799;47.184;8.538;2023-02-22T15:48:35;14.70;56.90
7516;DHT22;3799;47.184;8.538;2023-02-22T15:51:09;14.60;57.10
7516;DHT22;3799;47.184;8.538;2023-02-22T15:53:42;14.40;57.30
7516;DHT22;3799;47.184;8.538;2023-02-22T15:56:18;14.30;57.70
7516;DHT22;3799;47.184;8.538;2023-02-22T15:58:49;14.20;57.90
7516;DHT22;3799;47.184;8.538;2023-02-22T16:01:18;14.20;58.00
7516;DHT22;3799;47.184;8.538;2023-02-22T16:03:50;14.30;58.20
7516;DHT22;3799;47.184;8.538;2023-02-22T16:06:38;14.20;58.30
7516;DHT22;3799;47.184;8.538;2023-02-22T16:09:15;14.30;58.60
7516;DHT22;3799;47.184;8.538;2023-02-22T16:11:46;14.00;58.90
7516;DHT22;3799;47.184;8.538;2023-02-22T16:17:34;14.10;59.80
7516;DHT22;3799;47.184;8.538;2023-02-22T16:22:45;14.00;61.00
7516;DHT22;3799;47.184;8.538;2023-02-22T16:32:52;13.30;63.30
7516;DHT22;3799;47.184;8.538;2023-02-22T16:35:20;13.40;65.60
7516;DHT22;3799;47.184;8.538;2023-02-22T16:37:49;13.40;66.30
7516;DHT22;3799;47.184;8.538;2023-02-22T16:40:30;13.10;66.90
7516;DHT22;3799;47.184;8.538;2023-02-22T16:43:03;13.20;68.30
7516;DHT22;3799;47.184;8.538;2023-02-22T16:45:32;13.20;69.60
7516;DHT22;3799;47.184;8.538;2023-02-22T16:47:59;13.00;70.70
7516;DHT22;3799;47.184;8.538;2023-02-22T16:50:30;13.10;72.50
7516;DHT22;3799;47.184;8.538;2023-02-22T16:52:59;12.70;72.30
7516;DHT22;3799;47.184;8.538;2023-02-22T16:55:26;12.90;74.20
7516;DHT22;3799;47.184;8.538;2023-02-22T16:57:55;12.70;74.90
7516;DHT22;3799;47.184;8.538;2023-02-22T17:00:23;12.40;76.00
7516;DHT22;3799;47.184;8.538;2023-02-22T17:02:58;12.40;77.60
7516;DHT22;3799;47.184;8.538;2023-02-22T17:05:32;12.50;78.90
7516;DHT22;3799;47.184;8.538;2023-02-22T17:08:05;12.20;80.00
7516;DHT22;3799;47.184;8.538;2023-02-22T17:10:33;12.50;81.80
7516;DHT22;3799;47.184;8.538;2023-02-22T17:13:05;12.50;83.20
7516;DHT22;3799;47.184;8.538;2023-02-22T17:15:49;12.30;84.20
7516;DHT22;3799;47.184;8.538;2023-02-22T17:18:21;12.50;86.20
7516;DHT22;3799;47.184;8.538;2023-02-22T17:20:55;12.10;86.90
7516;DHT22;3799;47.184;8.538;2023-02-22T17:23:25;11.90;88.70
7516;DHT22;3799;47.184;8.538;2023-02-22T17:26:01;12.20;90.80
7516;DHT22;3799;47.184;8.538;2023-02-22T17:28:30;12.20;91.80
7516;DHT22;3799;47.184;8.538;2023-02-22T17:30:59;12.10;92.70
7516;DHT22;3799;47.184;8.538;2023-02-22T17:33:29;12.20;93.50
7516;DHT22;3799;47.184;8.538;2023-02-22T17:35:58;12.00;94.00
7516;DHT22;3799;47.184;8.538;2023-02-22T17:38:28;11.80;94.50
7516;DHT22;3799;47.184;8.538;2023-02-22T17:40:57;12.10;95.40
7516;DHT22;3799;47.184;8.538;2023-02-22T17:43:26;11.70;95.50
7516;DHT22;3799;47.184;8.538;2023-02-22T17:45:56;11.70;96.20
7516;DHT22;3799;47.184;8.538;2023-02-22T17:48:24;11.80;96.60
7516;DHT22;3799;47.184;8.538;2023-02-22T17:50:52;11.80;97.30
7516;DHT22;3799;47.184;8.538;2023-02-22T17:53:19;11.90;97.70
7516;DHT22;3799;47.184;8.538;2023-02-22T17:55:48;12.00;98.50
7516;DHT22;3799;47.184;8.538;2023-02-22T17:58:18;11.80;99.00
7516;DHT22;3799;47.184;8.538;2023-02-22T18:00:50;11.80;99.60
7516;DHT22;3799;47.184;8.538;2023-02-22T18:03:26;11.50;99.90
7516;DHT22;3799;47.184;8.538;2023-02-22T18:05:56;11.60;99.90
7516;DHT22;3799;47.184;8.538;2023-02-22T18:08:25;11.30;99.90
7516;DHT22;3799;47.184;8.538;2023-02-22T18:10:56;11.30;99.90
7516;DHT22;3799;47.184;8.538;2023-02-22T18:13:25;11.30;99.90
7516;DHT22;3799;47.184;8.538;2023-02-22T18:15:55;11.30;99.90
7516;DHT22;3799;47.184;8.538;2023-02-22T18:18:29;11.50;99.90
7516;DHT22;3799;47.184;8.538;2023-02-22T18:20:56;11.70;99.90
7516;DHT22;3799;47.184;8.538;2023-02-22T18:23:27;11.50;99.90
7516;DHT22;3799;47.184;8.538;2023-02-22T18:25:55;11.60;99.90
7516;DHT22;3799;47.184;8.538;2023-02-22T18:28:36;11.50;99.90
7516;DHT22;3799;47.184;8.538;2023-02-22T18:31:12;11.50;99.90
7516;DHT22;3799;47.184;8.538;2023-02-22T18:33:42;11.70;99.90
7516;DHT22;3799;47.184;8.538;2023-02-22T18:36:10;11.40;99.90
7516;DHT22;3799;47.184;8.538;2023-02-22T18:38:38;11.40;99.90
7516;DHT22;3799;47.184;8.538;2023-02-22T18:41:11;11.50;99.90
7516;DHT22;3799;47.184;8.538;2023-02-22T18:43:43;11.30;99.90
7516;DHT22;3799;47.184;8.538;2023-02-22T18:46:16;11.70;99.90
7516;DHT22;3799;47.184;8.538;2023-02-22T18:48:45;11.70;99.90
7516;DHT22;3799;47.184;8.538;2023-02-22T18:51:16;11.40;99.90
7516;DHT22;3799;47.184;8.538;2023-02-22T18:53:43;11.40;99.90
7516;DHT22;3799;47.184;8.538;2023-02-22T18:56:15;11.40;99.90
7516;DHT22;3799;47.184;8.538;2023-02-22T18:58:43;11.50;99.90
7516;DHT22;3799;47.184;8.538;2023-02-22T19:01:16;11.80;99.90
7516;DHT22;3799;47.184;8.538;2023-02-22T19:03:44;11.40;99.90
7516;DHT22;3799;47.184;8.538;2023-02-22T19:06:15;11.70;99.90
7516;DHT22;3799;47.184;8.538;2023-02-22T19:08:44;11.50;99.90
7516;DHT22;3799;47.184;8.538;2023-02-22T19:11:14;11.50;99.90